sensor_id;sensor_type;location;lat;lon;timestamp;temperature;humidity
45549;DHT22;31270;48.328;10.096;2023-07-13T00:00:33;18.10;99.90
45549;DHT22;31270;48.328;10.096;2023-07-13T00:02:59;18.20;99.90
45549;DHT22;31270;48.328;10.096;2023-07-13T00:05:24;18.20;99.90
45549;DHT22;31270;48.328;10.096;2023-07-13T00:07:51;18.20;99.90
45549;DHT22;31270;48.328;10.096;2023-07-13T00:10:17;18.30;99.90
45549;DHT22;31270;48.328;10.096;2023-07-13T00:12:44;18.20;99.90
45549;DHT22;31270;48.328;10.096;2023-07-13T00:15:16;18.20;99.90
45549;DHT22;31270;48.328;10.096;2023-07-13T00:17:42;18.30;99.90
45549;DHT22;31270;48.328;10.096;2023-07-13T00:20:11;18.30;99.90
45549;DHT22;31270;48.328;10.096;2023-07-13T00:22:37;18.30;99.90
45549;DHT22;31270;48.328;10.096;2023-07-13T00:25:03;18.50;99.90
45549;DHT22;31270;48.328;10.096;2023-07-13T00:27:28;18.30;99.90
45549;DHT22;31270;48.328;10.096;2023-07-13T00:30:00;18.40;99.90
45549;DHT22;31270;48.328;10.096;2023-07-13T00:32:26;18.40;99.90
45549;DHT22;31270;48.328;10.096;2023-07-13T00:34:52;18.30;99.90
45549;DHT22;31270;48.328;10.096;2023-07-13T00:37:17;18.50;99.90
45549;DHT22;31270;48.328;10.096;2023-07-13T00:39:50;18.30;99.90
45549;DHT22;31270;48.328;10.096;2023-07-13T00:42:15;18.20;99.90
45549;DHT22;31270;48.328;10.096;2023-07-13T00:44:59;18.10;99.90
45549;DHT22;31270;48.328;10.096;2023-07-13T00:47:25;18.00;99.90
45549;DHT22;31270;48.328;10.096;2023-07-13T00:49:51;18.00;99.90
45549;DHT22;31270;48.328;10.096;2023-07-13T00:52:17;17.90;99.90
45549;DHT22;31270;48.328;10.096;2023-07-13T00:54:45;17.90;99.90
45549;DHT22;31270;48.328;10.096;2023-07-13T00:57:15;18.00;99.90
45549;DHT22;31270;48.328;10.096;2023-07-13T00:59:45;18.00;99.90
45549;DHT22;31270;48.328;10.096;2023-07-13T01:02:12;17.90;99.90
45549;DHT22;31270;48.328;10.096;2023-07-13T01:04:38;17.80;99.90
45549;DHT22;31270;48.328;10.096;2023-07-13T01:07:04;17.90;99.90
45549;DHT22;31270;48.328;10.096;2023-07-13T01:09:30;18.10;99.90
45549;DHT22;31270;48.328;10.096;2023-07-13T01:11:56;17.80;99.90
45549;DHT22;31270;48.328;10.096;2023-07-13T01:14:21;17.90;99.90
45549;DHT22;31270;48.328;10.096;2023-07-13T01:16:49;17.90;99.90
45549;DHT22;31270;48.328;10.096;2023-07-13T01:21:52;17.80;99.90
45549;DHT22;31270;48.328;10.096;2023-07-13T01:24:18;17.80;99.90
45549;DHT22;31270;48.328;10.096;2023-07-13T01:26:43;17.80;99.90
45549;DHT22;31270;48.328;10.096;2023-07-13T01:29:09;17.70;99.90
45549;DHT22;31270;48.328;10.096;2023-07-13T01:31:35;17.70;99.90
45549;DHT22;31270;48.328;10.096;2023-07-13T01:34:00;17.70;99.90
45549;DHT22;31270;48.328;10.096;2023-07-13T01:36:26;17.70;99.90
45549;DHT22;31270;48.328;10.096;2023-07-13T01:38:51;17.60;99.90
45549;DHT22;31270;48.328;10.096;2023-07-13T01:41:17;17.60;99.90
45549;DHT22;31270;48.328;10.096;2023-07-13T01:43:43;17.50;99.90
45549;DHT22;31270;48.328;10.096;2023-07-13T01:46:08;17.40;99.90
45549;DHT22;31270;48.328;10.096;2023-07-13T01:48:34;17.50;99.90
45549;DHT22;31270;48.328;10.096;2023-07-13T01:51:00;17.70;99.90
45549;DHT22;31270;48.328;10.096;2023-07-13T01:53:26;17.50;99.90
45549;DHT22;31270;48.328;10.096;2023-07-13T01:55:52;17.50;99.90
45549;DHT22;31270;48.328;10.096;2023-07-13T01:58:18;17.40;99.90
45549;DHT22;31270;48.328;10.096;2023-07-13T02:00:43;17.30;99.90
45549;DHT22;31270;48.328;10.096;2023-07-13T02:03:09;17.30;99.90
45549;DHT22;31270;48.328;10.096;2023-07-13T02:05:35;17.30;99.90
45549;DHT22;31270;48.328;10.096;2023-07-13T02:08:01;17.30;99.90
45549;DHT22;31270;48.328;10.096;2023-07-13T02:10:27;17.30;99.90
45549;DHT22;31270;48.328;10.096;2023-07-13T02:12:54;17.20;99.90
45549;DHT22;31270;48.328;10.096;2023-07-13T02:15:20;17.30;99.90
45549;DHT22;31270;48.328;10.096;2023-07-13T02:17:46;17.40;99.90
45549;DHT22;31270;48.328;10.096;2023-07-13T02:20:12;17.30;99.90
45549;DHT22;31270;48.328;10.096;2023-07-13T02:22:38;17.30;99.90
45549;DHT22;31270;48.328;10.096;2023-07-13T02:25:05;17.20;99.90
45549;DHT22;31270;48.328;10.096;2023-07-13T02:27:31;17.10;99.90
45549;DHT22;31270;48.328;10.096;2023-07-13T02:29:57;17.10;99.90
45549;DHT22;31270;48.328;10.096;2023-07-13T02:32:23;17.00;99.90
45549;DHT22;31270;48.328;10.096;2023-07-13T02:34:51;17.00;99.90
45549;DHT22;31270;48.328;10.096;2023-07-13T02:37:17;16.90;99.90
45549;DHT22;31270;48.328;10.096;2023-07-13T02:39:43;16.90;99.90
45549;DHT22;31270;48.328;10.096;2023-07-13T02:42:09;16.80;99.90
45549;DHT22;31270;48.328;10.096;2023-07-13T02:44:40;16.80;99.90
45549;DHT22;31270;48.328;10.096;2023-07-13T02:47:06;16.70;99.90
45549;DHT22;31270;48.328;10.096;2023-07-13T02:49:32;16.80;99.90
45549;DHT22;31270;48.328;10.096;2023-07-13T02:51:58;16.90;99.90
45549;DHT22;31270;48.328;10.096;2023-07-13T02:54:23;16.70;99.90
45549;DHT22;31270;48.328;10.096;2023-07-13T02:56:49;16.70;99.90
45549;DHT22;31270;48.328;10.096;2023-07-13T02:59:15;16.70;99.90
45549;DHT22;31270;48.328;10.096;2023-07-13T03:01:40;16.70;99.90
45549;DHT22;31270;48.328;10.096;2023-07-13T03:04:06;16.60;99.90
45549;DHT22;31270;48.328;10.096;2023-07-13T03:06:33;16.60;99.90
45549;DHT22;31270;48.328;10.096;2023-07-13T03:08:59;16.70;99.90
45549;DHT22;31270;48.328;10.096;2023-07-13T03:11:29;16.60;99.90
45549;DHT22;31270;48.328;10.096;2023-07-13T03:13:57;16.70;99.90
45549;DHT22;31270;48.328;10.096;2023-07-13T03:16:23;16.60;99.90
45549;DHT22;31270;48.328;10.096;2023-07-13T03:18:49;16.50;99.90
45549;DHT22;31270;48.328;10.096;2023-07-13T03:21:15;16.50;99.90
45549;DHT22;31270;48.328;10.096;2023-07-13T03:23:41;16.60;99.90
45549;DHT22;31270;48.328;10.096;2023-07-13T03:26:16;16.50;99.90
45549;DHT22;31270;48.328;10.096;2023-07-13T03:28:42;16.60;99.90
45549;DHT22;31270;48.328;10.096;2023-07-13T03:31:16;16.50;99.90
45549;DHT22;31270;48.328;10.096;2023-07-13T03:33:42;16.50;99.90
45549;DHT22;31270;48.328;10.096;2023-07-13T03:36:13;16.40;99.90
45549;DHT22;31270;48.328;10.096;2023-07-13T03:38:39;16.40;99.90
45549;DHT22;31270;48.328;10.096;2023-07-13T03:41:05;16.60;99.90
45549;DHT22;31270;48.328;10.096;2023-07-13T03:43:31;16.30;99.90
45549;DHT22;31270;48.328;10.096;2023-07-13T03:45:57;16.40;99.90
45549;DHT22;31270;48.328;10.096;2023-07-13T03:48:23;16.40;99.90
45549;DHT22;31270;48.328;10.096;2023-07-13T03:50:48;16.40;99.90
45549;DHT22;31270;48.328;10.096;2023-07-13T03:53:17;16.30;99.90
45549;DHT22;31270;48.328;10.096;2023-07-13T03:55:43;16.30;99.90
45549;DHT22;31270;48.328;10.096;2023-07-13T04:00:53;16.30;99.90
45549;DHT22;31270;48.328;10.096;2023-07-13T04:03:19;16.40;99.90
45549;DHT22;31270;48.328;10.096;2023-07-13T04:05:45;16.40;99.90
45549;DHT22;31270;48.328;10.096;2023-07-13T04:08:13;16.50;99.90
45549;DHT22;31270;48.328;10.096;2023-07-13T04:10:39;16.50;99.90
45549;DHT22;31270;48.328;10.096;2023-07-13T04:13:05;16.50;99.90
45549;DHT22;31270;48.328;10.096;2023-07-13T04:15:31;16.50;99.90
45549;DHT22;31270;48.328;10.096;2023-07-13T04:17:57;16.50;99.90
45549;DHT22;31270;48.328;10.096;2023-07-13T04:20:25;16.50;99.90
45549;DHT22;31270;48.328;10.096;2023-07-13T04:22:51;16.70;99.90
45549;DHT22;31270;48.328;10.096;2023-07-13T04:25:20;16.60;99.90
45549;DHT22;31270;48.328;10.096;2023-07-13T04:27:45;16.80;99.90
45549;DHT22;31270;48.328;10.096;2023-07-13T04:30:11;16.60;99.90
45549;DHT22;31270;48.328;10.096;2023-07-13T04:32:37;16.70;99.90
45549;DHT22;31270;48.328;10.096;2023-07-13T04:35:03;16.60;99.90
45549;DHT22;31270;48.328;10.096;2023-07-13T04:37:30;16.70;99.90
45549;DHT22;31270;48.328;10.096;2023-07-13T04:39:55;16.70;99.90
45549;DHT22;31270;48.328;10.096;2023-07-13T04:42:21;16.80;99.90
45549;DHT22;31270;48.328;10.096;2023-07-13T04:44:51;16.80;99.90
45549;DHT22;31270;48.328;10.096;2023-07-13T04:47:17;16.80;99.90
45549;DHT22;31270;48.328;10.096;2023-07-13T04:49:44;16.90;99.90
45549;DHT22;31270;48.328;10.096;2023-07-13T04:52:10;16.80;99.90
45549;DHT22;31270;48.328;10.096;2023-07-13T04:54:35;16.90;99.90
45549;DHT22;31270;48.328;10.096;2023-07-13T04:57:03;16.80;99.90
45549;DHT22;31270;48.328;10.096;2023-07-13T04:59:30;16.80;99.90
45549;DHT22;31270;48.328;10.096;2023-07-13T05:01:56;16.80;99.90
45549;DHT22;31270;48.328;10.096;2023-07-13T05:04:22;16.80;99.90
45549;DHT22;31270;48.328;10.096;2023-07-13T05:06:48;16.80;99.90
45549;DHT22;31270;48.328;10.096;2023-07-13T05:09:26;16.80;99.90
45549;DHT22;31270;48.328;10.096;2023-07-13T05:11:52;16.70;99.90
45549;DHT22;31270;48.328;10.096;2023-07-13T05:14:18;16.70;99.90
45549;DHT22;31270;48.328;10.096;2023-07-13T05:16:43;16.80;99.90
45549;DHT22;31270;48.328;10.096;2023-07-13T05:19:09;16.80;99.90
45549;DHT22;31270;48.328;10.096;2023-07-13T05:21:35;16.80;99.90
45549;DHT22;31270;48.328;10.096;2023-07-13T05:24:01;16.90;99.90
45549;DHT22;31270;48.328;10.096;2023-07-13T05:26:26;17.00;99.90
45549;DHT22;31270;48.328;10.096;2023-07-13T05:28:52;17.00;99.90
45549;DHT22;31270;48.328;10.096;2023-07-13T05:31:18;17.10;99.90
45549;DHT22;31270;48.328;10.096;2023-07-13T05:33:43;17.10;99.90
45549;DHT22;31270;48.328;10.096;2023-07-13T05:36:09;17.00;99.90
45549;DHT22;31270;48.328;10.096;2023-07-13T05:38:42;17.10;99.90
45549;DHT22;31270;48.328;10.096;2023-07-13T05:41:07;17.20;99.90
45549;DHT22;31270;48.328;10.096;2023-07-13T05:43:33;17.20;99.90
45549;DHT22;31270;48.328;10.096;2023-07-13T05:45:59;17.30;99.90
45549;DHT22;31270;48.328;10.096;2023-07-13T05:48:24;17.30;99.90
45549;DHT22;31270;48.328;10.096;2023-07-13T05:50:50;17.20;99.90
45549;DHT22;31270;48.328;10.096;2023-07-13T05:53:16;17.30;99.90
45549;DHT22;31270;48.328;10.096;2023-07-13T05:55:43;17.40;99.90
45549;DHT22;31270;48.328;10.096;2023-07-13T05:58:09;17.50;99.90
45549;DHT22;31270;48.328;10.096;2023-07-13T06:00:34;17.60;99.90
45549;DHT22;31270;48.328;10.096;2023-07-13T06:03:00;17.70;99.90
45549;DHT22;31270;48.328;10.096;2023-07-13T06:05:26;17.70;99.90
45549;DHT22;31270;48.328;10.096;2023-07-13T06:07:54;17.80;99.90
45549;DHT22;31270;48.328;10.096;2023-07-13T06:10:21;17.80;99.90
45549;DHT22;31270;48.328;10.096;2023-07-13T06:12:46;17.80;99.90
45549;DHT22;31270;48.328;10.096;2023-07-13T06:15:12;17.80;99.90
45549;DHT22;31270;48.328;10.096;2023-07-13T06:17:38;17.90;99.90
45549;DHT22;31270;48.328;10.096;2023-07-13T06:20:04;18.00;99.90
45549;DHT22;31270;48.328;10.096;2023-07-13T06:22:30;18.20;99.90
45549;DHT22;31270;48.328;10.096;2023-07-13T06:24:56;18.20;99.90
45549;DHT22;31270;48.328;10.096;2023-07-13T06:27:21;18.30;99.90
45549;DHT22;31270;48.328;10.096;2023-07-13T06:29:47;18.40;99.90
45549;DHT22;31270;48.328;10.096;2023-07-13T06:32:12;18.50;99.90
45549;DHT22;31270;48.328;10.096;2023-07-13T06:34:38;18.60;99.90
45549;DHT22;31270;48.328;10.096;2023-07-13T06:37:04;18.80;99.90
45549;DHT22;31270;48.328;10.096;2023-07-13T06:39:29;18.70;99.90
45549;DHT22;31270;48.328;10.096;2023-07-13T06:41:55;18.70;99.90
45549;DHT22;31270;48.328;10.096;2023-07-13T06:44:20;18.90;99.90
45549;DHT22;31270;48.328;10.096;2023-07-13T06:46:46;18.80;99.90
45549;DHT22;31270;48.328;10.096;2023-07-13T06:49:11;18.90;99.90
45549;DHT22;31270;48.328;10.096;2023-07-13T06:51:37;18.80;99.90
45549;DHT22;31270;48.328;10.096;2023-07-13T06:54:03;18.90;99.90
45549;DHT22;31270;48.328;10.096;2023-07-13T06:56:29;19.00;99.90
45549;DHT22;31270;48.328;10.096;2023-07-13T06:58:54;19.00;99.90
45549;DHT22;31270;48.328;10.096;2023-07-13T07:01:20;19.10;99.90
45549;DHT22;31270;48.328;10.096;2023-07-13T07:03:46;19.20;99.90
45549;DHT22;31270;48.328;10.096;2023-07-13T07:06:17;19.20;99.90
45549;DHT22;31270;48.328;10.096;2023-07-13T07:08:43;19.30;99.90
45549;DHT22;31270;48.328;10.096;2023-07-13T07:11:19;19.20;99.90
45549;DHT22;31270;48.328;10.096;2023-07-13T07:13:46;19.20;99.90
45549;DHT22;31270;48.328;10.096;2023-07-13T07:16:11;19.30;99.90
45549;DHT22;31270;48.328;10.096;2023-07-13T07:18:37;19.40;99.90
45549;DHT22;31270;48.328;10.096;2023-07-13T07:21:04;19.60;99.90
45549;DHT22;31270;48.328;10.096;2023-07-13T07:23:30;19.70;99.90
45549;DHT22;31270;48.328;10.096;2023-07-13T07:25:55;19.80;99.90
45549;DHT22;31270;48.328;10.096;2023-07-13T07:28:21;19.80;99.90
45549;DHT22;31270;48.328;10.096;2023-07-13T07:30:47;19.90;99.90
45549;DHT22;31270;48.328;10.096;2023-07-13T07:33:13;19.90;99.90
45549;DHT22;31270;48.328;10.096;2023-07-13T07:35:39;20.10;99.90
45549;DHT22;31270;48.328;10.096;2023-07-13T07:38:05;20.20;99.90
45549;DHT22;31270;48.328;10.096;2023-07-13T07:40:31;20.30;99.90
45549;DHT22;31270;48.328;10.096;2023-07-13T07:42:57;20.50;99.90
45549;DHT22;31270;48.328;10.096;2023-07-13T07:45:23;20.50;99.90
45549;DHT22;31270;48.328;10.096;2023-07-13T07:47:49;20.60;99.90
45549;DHT22;31270;48.328;10.096;2023-07-13T07:50:15;20.90;99.90
45549;DHT22;31270;48.328;10.096;2023-07-13T07:52:41;20.80;99.90
45549;DHT22;31270;48.328;10.096;2023-07-13T07:55:07;20.90;99.90
45549;DHT22;31270;48.328;10.096;2023-07-13T07:57:33;20.90;99.90
45549;DHT22;31270;48.328;10.096;2023-07-13T07:59:59;21.00;99.90
45549;DHT22;31270;48.328;10.096;2023-07-13T08:02:26;21.10;99.90
45549;DHT22;31270;48.328;10.096;2023-07-13T08:04:52;21.10;99.90
45549;DHT22;31270;48.328;10.096;2023-07-13T08:07:18;21.20;99.90
45549;DHT22;31270;48.328;10.096;2023-07-13T08:09:43;21.30;99.90
45549;DHT22;31270;48.328;10.096;2023-07-13T08:12:09;21.20;99.90
45549;DHT22;31270;48.328;10.096;2023-07-13T08:14:35;21.00;99.90
45549;DHT22;31270;48.328;10.096;2023-07-13T08:17:00;21.10;99.90
45549;DHT22;31270;48.328;10.096;2023-07-13T08:19:26;21.10;99.90
45549;DHT22;31270;48.328;10.096;2023-07-13T08:21:51;21.50;99.90
45549;DHT22;31270;48.328;10.096;2023-07-13T08:24:17;21.60;99.90
45549;DHT22;31270;48.328;10.096;2023-07-13T08:26:44;21.90;99.90
45549;DHT22;31270;48.328;10.096;2023-07-13T08:29:11;21.80;99.90
45549;DHT22;31270;48.328;10.096;2023-07-13T08:31:37;22.10;99.90
45549;DHT22;31270;48.328;10.096;2023-07-13T08:34:02;22.10;99.90
45549;DHT22;31270;48.328;10.096;2023-07-13T08:36:34;22.20;99.90
45549;DHT22;31270;48.328;10.096;2023-07-13T08:39:00;22.10;99.90
45549;DHT22;31270;48.328;10.096;2023-07-13T08:41:26;22.60;99.90
45549;DHT22;31270;48.328;10.096;2023-07-13T08:43:58;22.40;99.90
45549;DHT22;31270;48.328;10.096;2023-07-13T08:46:36;22.40;99.90
45549;DHT22;31270;48.328;10.096;2023-07-13T08:49:15;22.50;99.90
45549;DHT22;31270;48.328;10.096;2023-07-13T08:52:00;22.50;99.90
45549;DHT22;31270;48.328;10.096;2023-07-13T08:54:40;22.60;99.90
45549;DHT22;31270;48.328;10.096;2023-07-13T08:57:14;22.30;99.90
45549;DHT22;31270;48.328;10.096;2023-07-13T08:59:40;22.10;99.90
45549;DHT22;31270;48.328;10.096;2023-07-13T09:07:35;22.00;99.90
45549;DHT22;31270;48.328;10.096;2023-07-13T09:10:19;21.80;99.90
45549;DHT22;31270;48.328;10.096;2023-07-13T09:15:45;22.40;99.90
45549;DHT22;31270;48.328;10.096;2023-07-13T09:20:59;23.30;99.90
45549;DHT22;31270;48.328;10.096;2023-07-13T09:23:27;23.90;99.90
45549;DHT22;31270;48.328;10.096;2023-07-13T09:26:00;24.30;99.90
45549;DHT22;31270;48.328;10.096;2023-07-13T09:28:29;24.70;99.90
45549;DHT22;31270;48.328;10.096;2023-07-13T09:31:04;24.80;99.90
45549;DHT22;31270;48.328;10.096;2023-07-13T09:33:31;24.90;99.90
45549;DHT22;31270;48.328;10.096;2023-07-13T09:36:00;25.00;99.90
45549;DHT22;31270;48.328;10.096;2023-07-13T09:38:28;25.00;99.90
45549;DHT22;31270;48.328;10.096;2023-07-13T09:43:26;25.20;99.90
45549;DHT22;31270;48.328;10.096;2023-07-13T09:45:54;25.20;99.90
45549;DHT22;31270;48.328;10.096;2023-07-13T09:48:20;25.40;99.90
45549;DHT22;31270;48.328;10.096;2023-07-13T09:50:46;25.70;99.90
45549;DHT22;31270;48.328;10.096;2023-07-13T09:53:18;25.90;99.90
45549;DHT22;31270;48.328;10.096;2023-07-13T09:55:46;26.10;99.90
45549;DHT22;31270;48.328;10.096;2023-07-13T09:58:15;26.60;99.90
45549;DHT22;31270;48.328;10.096;2023-07-13T10:00:44;26.50;99.90
45549;DHT22;31270;48.328;10.096;2023-07-13T10:03:23;26.70;99.90
45549;DHT22;31270;48.328;10.096;2023-07-13T10:05:50;26.50;99.90
45549;DHT22;31270;48.328;10.096;2023-07-13T10:08:27;26.80;99.90
45549;DHT22;31270;48.328;10.096;2023-07-13T10:13:54;26.80;99.90
45549;DHT22;31270;48.328;10.096;2023-07-13T10:16:34;26.70;99.90
45549;DHT22;31270;48.328;10.096;2023-07-13T10:19:11;26.70;99.90
45549;DHT22;31270;48.328;10.096;2023-07-13T10:21:54;26.90;99.90
45549;DHT22;31270;48.328;10.096;2023-07-13T10:24:26;26.90;99.90
45549;DHT22;31270;48.328;10.096;2023-07-13T10:29:26;26.40;99.90
45549;DHT22;31270;48.328;10.096;2023-07-13T10:31:53;26.40;99.90
45549;DHT22;31270;48.328;10.096;2023-07-13T10:34:19;26.60;99.90
45549;DHT22;31270;48.328;10.096;2023-07-13T10:36:46;26.40;99.90
45549;DHT22;31270;48.328;10.096;2023-07-13T10:39:31;26.10;99.90
45549;DHT22;31270;48.328;10.096;2023-07-13T10:42:04;26.00;99.90
45549;DHT22;31270;48.328;10.096;2023-07-13T10:44:32;25.90;99.90
45549;DHT22;31270;48.328;10.096;2023-07-13T10:47:08;26.00;99.90
45549;DHT22;31270;48.328;10.096;2023-07-13T10:49:37;25.70;99.90
45549;DHT22;31270;48.328;10.096;2023-07-13T10:52:04;25.70;99.90
45549;DHT22;31270;48.328;10.096;2023-07-13T10:54:31;25.70;99.90
45549;DHT22;31270;48.328;10.096;2023-07-13T10:57:17;26.00;99.90
45549;DHT22;31270;48.328;10.096;2023-07-13T11:00:10;26.20;99.90
45549;DHT22;31270;48.328;10.096;2023-07-13T11:02:34;26.00;99.90
45549;DHT22;31270;48.328;10.096;2023-07-13T11:05:18;26.10;99.90
45549;DHT22;31270;48.328;10.096;2023-07-13T11:08:02;26.20;99.90
45549;DHT22;31270;48.328;10.096;2023-07-13T11:10:50;26.70;99.90
45549;DHT22;31270;48.328;10.096;2023-07-13T11:18:48;26.90;99.90
45549;DHT22;31270;48.328;10.096;2023-07-13T11:21:19;27.40;99.90
45549;DHT22;31270;48.328;10.096;2023-07-13T11:23:53;27.90;99.90
45549;DHT22;31270;48.328;10.096;2023-07-13T11:29:24;28.10;99.90
45549;DHT22;31270;48.328;10.096;2023-07-13T11:31:59;28.40;99.90
45549;DHT22;31270;48.328;10.096;2023-07-13T11:34:30;28.60;99.90
45549;DHT22;31270;48.328;10.096;2023-07-13T11:36:59;28.50;99.90
45549;DHT22;31270;48.328;10.096;2023-07-13T11:39:31;28.50;99.90
45549;DHT22;31270;48.328;10.096;2023-07-13T11:42:00;28.80;99.90
45549;DHT22;31270;48.328;10.096;2023-07-13T11:44:29;28.70;99.90
45549;DHT22;31270;48.328;10.096;2023-07-13T11:46:57;28.60;99.90
45549;DHT22;31270;48.328;10.096;2023-07-13T11:49:30;28.80;99.90
45549;DHT22;31270;48.328;10.096;2023-07-13T11:52:02;29.20;99.90
45549;DHT22;31270;48.328;10.096;2023-07-13T11:54:47;29.40;99.90
45549;DHT22;31270;48.328;10.096;2023-07-13T11:57:30;29.30;99.90
45549;DHT22;31270;48.328;10.096;2023-07-13T12:00:04;29.30;99.90
45549;DHT22;31270;48.328;10.096;2023-07-13T12:02:34;29.20;99.90
45549;DHT22;31270;48.328;10.096;2023-07-13T12:05:04;29.40;99.90
45549;DHT22;31270;48.328;10.096;2023-07-13T12:07:32;29.50;99.90
45549;DHT22;31270;48.328;10.096;2023-07-13T12:13:02;29.20;99.90
45549;DHT22;31270;48.328;10.096;2023-07-13T12:15:41;29.30;99.90
45549;DHT22;31270;48.328;10.096;2023-07-13T12:18:18;29.30;99.90
45549;DHT22;31270;48.328;10.096;2023-07-13T12:20:45;29.10;99.90
45549;DHT22;31270;48.328;10.096;2023-07-13T12:23:32;29.10;99.90
45549;DHT22;31270;48.328;10.096;2023-07-13T12:26:02;29.00;98.60
45549;DHT22;31270;48.328;10.096;2023-07-13T12:28:52;28.90;99.90
45549;DHT22;31270;48.328;10.096;2023-07-13T12:31:42;29.00;99.90
45549;DHT22;31270;48.328;10.096;2023-07-13T12:34:14;29.20;99.90
45549;DHT22;31270;48.328;10.096;2023-07-13T12:37:00;29.10;99.90
45549;DHT22;31270;48.328;10.096;2023-07-13T12:39:36;28.90;99.90
45549;DHT22;31270;48.328;10.096;2023-07-13T12:42:31;29.00;99.90
45549;DHT22;31270;48.328;10.096;2023-07-13T12:45:03;29.20;99.90
45549;DHT22;31270;48.328;10.096;2023-07-13T12:47:39;29.10;99.50
45549;DHT22;31270;48.328;10.096;2023-07-13T12:50:16;29.10;99.10
45549;DHT22;31270;48.328;10.096;2023-07-13T12:52:43;29.00;99.10
45549;DHT22;31270;48.328;10.096;2023-07-13T12:55:17;29.00;98.70
45549;DHT22;31270;48.328;10.096;2023-07-13T12:57:52;29.40;99.50
45549;DHT22;31270;48.328;10.096;2023-07-13T13:00:32;29.40;98.30
45549;DHT22;31270;48.328;10.096;2023-07-13T13:03:02;29.40;99.00
45549;DHT22;31270;48.328;10.096;2023-07-13T13:05:30;29.70;99.90
45549;DHT22;31270;48.328;10.096;2023-07-13T13:07:57;29.50;98.30
45549;DHT22;31270;48.328;10.096;2023-07-13T13:10:23;29.80;99.90
45549;DHT22;31270;48.328;10.096;2023-07-13T13:12:50;29.70;97.90
45549;DHT22;31270;48.328;10.096;2023-07-13T13:15:15;29.90;99.10
45549;DHT22;31270;48.328;10.096;2023-07-13T13:17:42;29.70;97.90
45549;DHT22;31270;48.328;10.096;2023-07-13T13:20:19;29.90;98.10
45549;DHT22;31270;48.328;10.096;2023-07-13T13:22:45;30.30;95.20
45549;DHT22;31270;48.328;10.096;2023-07-13T13:25:12;30.20;96.80
45549;DHT22;31270;48.328;10.096;2023-07-13T13:27:43;30.20;97.60
45549;DHT22;31270;48.328;10.096;2023-07-13T13:30:12;30.20;96.90
45549;DHT22;31270;48.328;10.096;2023-07-13T13:32:43;30.30;97.10
45549;DHT22;31270;48.328;10.096;2023-07-13T13:35:17;30.10;97.20
45549;DHT22;31270;48.328;10.096;2023-07-13T13:37:43;30.30;99.10
45549;DHT22;31270;48.328;10.096;2023-07-13T13:40:18;30.20;97.20
45549;DHT22;31270;48.328;10.096;2023-07-13T13:42:44;29.80;97.60
45549;DHT22;31270;48.328;10.096;2023-07-13T13:45:10;30.30;97.20
45549;DHT22;31270;48.328;10.096;2023-07-13T13:47:38;30.30;98.50
45549;DHT22;31270;48.328;10.096;2023-07-13T13:50:16;30.60;99.10
45549;DHT22;31270;48.328;10.096;2023-07-13T13:52:43;30.50;96.50
45549;DHT22;31270;48.328;10.096;2023-07-13T13:55:20;30.10;95.40
45549;DHT22;31270;48.328;10.096;2023-07-13T13:57:47;29.70;95.80
45549;DHT22;31270;48.328;10.096;2023-07-13T14:00:14;29.70;95.10
45549;DHT22;31270;48.328;10.096;2023-07-13T14:02:45;29.70;95.60
45549;DHT22;31270;48.328;10.096;2023-07-13T14:05:18;29.90;96.60
45549;DHT22;31270;48.328;10.096;2023-07-13T14:07:45;30.10;97.10
45549;DHT22;31270;48.328;10.096;2023-07-13T14:10:14;29.80;95.20
45549;DHT22;31270;48.328;10.096;2023-07-13T14:12:45;30.00;95.30
45549;DHT22;31270;48.328;10.096;2023-07-13T14:15:26;29.80;96.00
45549;DHT22;31270;48.328;10.096;2023-07-13T14:17:52;29.70;95.10
45549;DHT22;31270;48.328;10.096;2023-07-13T14:20:21;29.10;94.40
45549;DHT22;31270;48.328;10.096;2023-07-13T14:22:48;29.10;94.20
45549;DHT22;31270;48.328;10.096;2023-07-13T14:25:15;29.10;95.40
45549;DHT22;31270;48.328;10.096;2023-07-13T14:27:42;29.10;96.00
45549;DHT22;31270;48.328;10.096;2023-07-13T14:30:16;29.10;96.00
45549;DHT22;31270;48.328;10.096;2023-07-13T14:32:43;29.20;96.10
45549;DHT22;31270;48.328;10.096;2023-07-13T14:35:14;29.30;96.70
45549;DHT22;31270;48.328;10.096;2023-07-13T14:37:41;29.40;95.20
45549;DHT22;31270;48.328;10.096;2023-07-13T14:40:19;29.40;96.20
45549;DHT22;31270;48.328;10.096;2023-07-13T14:42:47;29.80;95.90
45549;DHT22;31270;48.328;10.096;2023-07-13T14:45:19;30.00;96.80
45549;DHT22;31270;48.328;10.096;2023-07-13T14:47:45;29.80;95.50
45549;DHT22;31270;48.328;10.096;2023-07-13T14:50:30;29.20;95.00
45549;DHT22;31270;48.328;10.096;2023-07-13T14:52:56;29.00;94.80
45549;DHT22;31270;48.328;10.096;2023-07-13T14:55:22;29.10;97.50
45549;DHT22;31270;48.328;10.096;2023-07-13T14:57:49;29.10;95.40
45549;DHT22;31270;48.328;10.096;2023-07-13T15:00:20;29.20;95.70
45549;DHT22;31270;48.328;10.096;2023-07-13T15:02:56;29.30;95.10
45549;DHT22;31270;48.328;10.096;2023-07-13T15:05:31;29.10;94.40
45549;DHT22;31270;48.328;10.096;2023-07-13T15:07:59;28.90;94.30
45549;DHT22;31270;48.328;10.096;2023-07-13T15:10:31;28.90;94.50
45549;DHT22;31270;48.328;10.096;2023-07-13T15:13:12;28.60;95.40
45549;DHT22;31270;48.328;10.096;2023-07-13T15:15:39;28.50;94.30
45549;DHT22;31270;48.328;10.096;2023-07-13T15:18:09;28.50;96.10
45549;DHT22;31270;48.328;10.096;2023-07-13T15:20:36;28.60;94.00
45549;DHT22;31270;48.328;10.096;2023-07-13T15:23:02;28.90;95.90
45549;DHT22;31270;48.328;10.096;2023-07-13T15:25:29;28.90;95.90
45549;DHT22;31270;48.328;10.096;2023-07-13T15:28:01;28.90;95.40
45549;DHT22;31270;48.328;10.096;2023-07-13T15:30:43;28.80;95.10
45549;DHT22;31270;48.328;10.096;2023-07-13T15:33:23;28.20;94.90
45549;DHT22;31270;48.328;10.096;2023-07-13T15:35:50;28.30;95.20
45549;DHT22;31270;48.328;10.096;2023-07-13T15:38:19;27.90;95.10
45549;DHT22;31270;48.328;10.096;2023-07-13T15:40:47;27.60;95.90
45549;DHT22;31270;48.328;10.096;2023-07-13T15:43:14;27.30;95.60
45549;DHT22;31270;48.328;10.096;2023-07-13T15:45:40;27.30;96.80
45549;DHT22;31270;48.328;10.096;2023-07-13T15:48:16;27.30;96.00
45549;DHT22;31270;48.328;10.096;2023-07-13T15:50:47;27.10;96.80
45549;DHT22;31270;48.328;10.096;2023-07-13T15:53:22;26.70;96.00
45549;DHT22;31270;48.328;10.096;2023-07-13T15:55:49;26.50;96.90
45549;DHT22;31270;48.328;10.096;2023-07-13T15:58:15;26.30;96.40
45549;DHT22;31270;48.328;10.096;2023-07-13T16:00:41;26.10;97.00